createdAt,value
2018-12-18T00:00:45.711Z,1019.87
2018-12-18T00:01:45.700Z,1019.87
2018-12-18T00:02:45.727Z,1019.89
2018-12-18T00:03:45.723Z,1019.84
2018-12-18T00:04:45.666Z,1019.93
2018-12-18T00:05:45.681Z,1019.89
2018-12-18T00:06:45.702Z,1019.92
2018-12-18T00:07:45.635Z,1019.85
2018-12-18T00:08:45.621Z,1019.89
2018-12-18T00:09:45.618Z,1019.92
2018-12-18T00:10:45.598Z,1019.93
2018-12-18T00:11:45.590Z,1019.93
2018-12-18T00:12:45.588Z,1020.01
2018-12-18T00:13:45.578Z,1019.93
2018-12-18T00:14:45.580Z,1019.91
2018-12-18T00:15:45.551Z,1019.89
2018-12-18T00:16:45.542Z,1019.89
2018-12-18T00:17:45.519Z,1019.92
2018-12-18T00:18:45.520Z,1019.91
2018-12-18T00:19:45.562Z,1019.90
2018-12-18T00:20:45.503Z,1019.86
2018-12-18T00:21:45.482Z,1019.85
2018-12-18T00:22:45.470Z,1019.79
2018-12-18T00:23:45.494Z,1019.86
2018-12-18T00:24:45.458Z,1019.80
2018-12-18T00:25:45.456Z,1019.78
2018-12-18T00:26:45.448Z,1019.73
2018-12-18T00:27:45.416Z,1019.71
2018-12-18T00:28:45.409Z,1019.67
2018-12-18T00:29:45.411Z,1019.68
2018-12-18T00:30:45.390Z,1019.66
2018-12-18T00:31:45.375Z,1019.63
2018-12-18T00:32:45.359Z,1019.66
2018-12-18T00:33:46.173Z,1019.77
2018-12-18T00:34:45.360Z,1019.69
2018-12-18T00:35:45.331Z,1019.69
2018-12-18T00:36:45.330Z,1019.76
2018-12-18T00:37:45.306Z,1019.75
2018-12-18T00:38:45.293Z,1019.73
2018-12-18T00:39:45.306Z,1019.72
2018-12-18T00:40:45.270Z,1019.75
2018-12-18T00:41:45.264Z,1019.75
2018-12-18T00:42:45.262Z,1019.76
2018-12-18T00:43:45.248Z,1019.72
2018-12-18T00:44:45.246Z,1019.62
2018-12-18T00:45:45.221Z,1019.65
2018-12-18T00:46:45.204Z,1019.69
2018-12-18T00:47:45.206Z,1019.70
2018-12-18T00:48:45.190Z,1019.69
2018-12-18T00:49:45.218Z,1019.66
2018-12-18T00:50:45.164Z,1019.72
2018-12-18T00:51:45.217Z,1019.68
2018-12-18T00:52:45.139Z,1019.68
2018-12-18T00:53:45.125Z,1019.70
2018-12-18T00:54:45.121Z,1019.72
2018-12-18T00:55:45.113Z,1019.75
2018-12-18T00:56:45.093Z,1019.70
2018-12-18T00:57:45.081Z,1019.71
2018-12-18T00:58:45.078Z,1019.72
2018-12-18T00:59:45.059Z,1019.67
2018-12-18T01:00:45.062Z,1019.70
2018-12-18T01:01:45.040Z,1019.66
2018-12-18T01:02:45.026Z,1019.69
2018-12-18T01:03:45.013Z,1019.66
2018-12-18T01:04:45.009Z,1019.72
2018-12-18T01:05:45.007Z,1019.66
2018-12-18T01:06:44.992Z,1019.70
2018-12-18T01:07:44.979Z,1019.66
2018-12-18T01:08:44.982Z,1019.70
2018-12-18T01:09:44.955Z,1019.72
2018-12-18T01:10:44.957Z,1019.73
2018-12-18T01:11:44.935Z,1019.75
2018-12-18T01:12:44.933Z,1019.74
2018-12-18T01:13:44.910Z,1019.72
2018-12-18T01:14:44.905Z,1019.76
2018-12-18T01:15:44.904Z,1019.75
2018-12-18T01:16:44.880Z,1019.78
2018-12-18T01:17:44.867Z,1019.85
2018-12-18T01:18:44.876Z,1019.84
2018-12-18T01:19:44.855Z,1019.85
2018-12-18T01:20:44.856Z,1019.87
2018-12-18T01:21:44.834Z,1019.85
2018-12-18T01:22:44.820Z,1019.88
2018-12-18T01:23:44.809Z,1019.90
2018-12-18T01:24:44.793Z,1019.89
2018-12-18T01:25:44.791Z,1019.96
2018-12-18T01:26:44.770Z,1019.92
2018-12-18T01:27:44.818Z,1019.94
2018-12-18T01:28:44.748Z,1019.99
2018-12-18T01:29:44.832Z,1019.97
2018-12-18T01:30:44.754Z,1019.95
2018-12-18T01:31:44.720Z,1020.01
2018-12-18T01:32:44.707Z,1019.97
2018-12-18T01:33:44.705Z,1019.99
2018-12-18T01:34:44.685Z,1019.94
2018-12-18T01:35:44.687Z,1019.97
2018-12-18T01:36:44.667Z,1019.95
2018-12-18T01:37:44.663Z,1019.97
2018-12-18T01:38:54.010Z,1020.01
2018-12-18T01:39:44.635Z,1019.97
2018-12-18T01:40:52.688Z,1019.99
2018-12-18T01:41:44.653Z,1020.05
2018-12-18T01:42:44.601Z,1020.00
2018-12-18T01:43:52.561Z,1019.97
2018-12-18T01:44:54.079Z,1020.06
2018-12-18T01:45:44.582Z,1019.97
2018-12-18T01:46:44.557Z,1019.98
2018-12-18T01:47:44.543Z,1020.08
2018-12-18T01:48:44.536Z,1020.03
2018-12-18T01:49:44.527Z,1020.04
2018-12-18T01:50:44.559Z,1020.05
2018-12-18T01:51:44.507Z,1020.06
2018-12-18T01:52:54.584Z,1020.09
2018-12-18T01:53:44.479Z,1020.07
2018-12-18T01:54:44.470Z,1020.11
2018-12-18T01:55:44.459Z,1020.10
2018-12-18T01:56:44.466Z,1020.14
2018-12-18T01:57:44.450Z,1020.11
2018-12-18T01:58:44.438Z,1020.11
2018-12-18T01:59:44.419Z,1020.08
2018-12-18T02:00:44.408Z,1020.08
2018-12-18T02:01:44.420Z,1020.13
2018-12-18T02:02:44.391Z,1020.15
2018-12-18T02:03:44.376Z,1020.11
2018-12-18T02:04:44.391Z,1020.07
2018-12-18T02:05:44.356Z,1020.04
2018-12-18T02:06:44.380Z,1020.03
2018-12-18T02:07:44.335Z,1020.02
2018-12-18T02:08:44.321Z,1020.03
2018-12-18T02:09:44.312Z,1020.02
2018-12-18T02:10:44.299Z,1020.10
2018-12-18T02:11:44.303Z,1020.17
2018-12-18T02:12:44.283Z,1020.09
2018-12-18T02:13:44.268Z,1020.02
2018-12-18T02:14:44.256Z,1020.08
2018-12-18T02:15:44.243Z,1020.10
2018-12-18T02:16:44.244Z,1020.08
2018-12-18T02:17:44.226Z,1020.07
2018-12-18T02:18:44.214Z,1020.13
2018-12-18T02:19:44.212Z,1020.09
2018-12-18T02:20:44.195Z,1020.12
2018-12-18T02:21:44.193Z,1020.06
2018-12-18T02:22:44.171Z,1020.11
2018-12-18T02:23:44.159Z,1020.15
2018-12-18T02:24:44.151Z,1020.12
2018-12-18T02:25:44.137Z,1020.11
2018-12-18T02:26:44.139Z,1020.04
2018-12-18T02:27:44.118Z,1020.11
2018-12-18T02:28:44.105Z,1020.11
2018-12-18T02:29:44.122Z,1020.12
2018-12-18T02:30:44.084Z,1020.15
2018-12-18T02:31:44.094Z,1020.10
2018-12-18T02:32:44.063Z,1020.09
2018-12-18T02:33:44.053Z,1020.07
2018-12-18T02:34:47.264Z,1020.09
2018-12-18T02:35:44.026Z,1020.08
2018-12-18T02:36:44.031Z,1020.11
2018-12-18T02:37:44.007Z,1020.07
2018-12-18T02:38:44.042Z,1020.06
2018-12-18T02:39:43.985Z,1019.91
2018-12-18T02:40:43.974Z,1019.97
2018-12-18T02:41:43.986Z,1019.87
2018-12-18T02:42:43.957Z,1019.92
2018-12-18T02:43:43.941Z,1019.87
2018-12-18T02:44:43.931Z,1019.85
2018-12-18T02:45:43.919Z,1019.88
2018-12-18T02:46:43.921Z,1019.87
2018-12-18T02:47:43.907Z,1019.86
2018-12-18T02:48:43.891Z,1019.87
2018-12-18T02:49:43.876Z,1019.89
2018-12-18T02:50:43.868Z,1019.90
2018-12-18T02:51:43.878Z,1019.86
2018-12-18T02:52:43.845Z,1019.89
2018-12-18T02:53:43.836Z,1019.94
2018-12-18T02:54:43.829Z,1019.93
2018-12-18T02:55:43.813Z,1019.88
2018-12-18T02:56:43.825Z,1019.93
2018-12-18T02:57:43.793Z,1019.93
2018-12-18T02:58:43.782Z,1019.94
2018-12-18T02:59:43.778Z,1019.95
2018-12-18T03:00:43.765Z,1019.93
2018-12-18T03:01:43.770Z,1019.94
2018-12-18T03:02:43.738Z,1019.87
2018-12-18T03:03:43.731Z,1019.89
2018-12-18T03:04:43.716Z,1019.89
2018-12-18T03:05:43.704Z,1019.96
2018-12-18T03:06:43.728Z,1019.97
2018-12-18T03:07:43.682Z,1019.97
2018-12-18T03:08:43.676Z,1019.99
2018-12-18T03:09:43.659Z,1019.99
2018-12-18T03:10:43.651Z,1019.98
2018-12-18T03:11:43.643Z,1020.02
2018-12-18T03:12:43.645Z,1020.03
2018-12-18T03:13:43.621Z,1020.00
2018-12-18T03:14:43.607Z,1020.12
2018-12-18T03:15:43.596Z,1020.07
2018-12-18T03:16:43.590Z,1020.15
2018-12-18T03:17:43.589Z,1020.22
2018-12-18T03:18:43.563Z,1020.19
2018-12-18T03:19:43.554Z,1020.15
2018-12-18T03:20:43.544Z,1020.20
2018-12-18T03:21:43.532Z,1020.12
2018-12-18T03:22:43.535Z,1020.19
2018-12-18T03:23:43.512Z,1020.20
2018-12-18T03:24:43.500Z,1020.14
2018-12-18T03:25:43.491Z,1020.18
2018-12-18T03:26:43.501Z,1020.06
2018-12-18T03:27:43.478Z,1020.12
2018-12-18T03:28:43.461Z,1020.10
2018-12-18T03:29:43.446Z,1020.08
2018-12-18T03:30:43.437Z,1020.04
2018-12-18T03:31:43.431Z,1020.04
2018-12-18T03:32:43.434Z,1020.04
2018-12-18T03:33:43.408Z,1020.02
2018-12-18T03:34:43.405Z,1020.03
2018-12-18T03:35:43.384Z,1020.05
2018-12-18T03:36:43.372Z,1020.04
2018-12-18T03:37:43.368Z,1020.02
2018-12-18T03:38:43.349Z,1020.05
2018-12-18T03:39:43.348Z,1020.01
2018-12-18T03:40:43.329Z,1020.07
2018-12-18T03:41:43.317Z,1020.06
2018-12-18T03:42:43.317Z,1020.03
2018-12-18T03:43:43.297Z,1020.10
2018-12-18T03:44:43.284Z,1020.11
2018-12-18T03:45:43.275Z,1020.06
2018-12-18T03:46:43.261Z,1020.08
2018-12-18T03:47:43.622Z,1020.06
2018-12-18T03:48:43.244Z,1020.08
2018-12-18T03:49:43.230Z,1020.12
2018-12-18T03:50:43.222Z,1020.10
2018-12-18T03:51:43.217Z,1020.08
2018-12-18T03:52:43.223Z,1020.06
2018-12-18T03:53:43.188Z,1020.11
2018-12-18T03:54:43.175Z,1020.08
2018-12-18T03:55:43.164Z,1020.09
2018-12-18T03:56:43.166Z,1020.07
2018-12-18T03:57:43.165Z,1020.05
2018-12-18T03:58:43.132Z,1020.07
2018-12-18T03:59:43.124Z,1020.06
2018-12-18T04:00:43.110Z,1020.18
2018-12-18T04:01:43.102Z,1020.08
2018-12-18T04:02:43.103Z,1020.16
2018-12-18T04:03:43.078Z,1020.15
2018-12-18T04:04:43.069Z,1020.11
2018-12-18T04:05:43.061Z,1020.14
2018-12-18T04:06:43.049Z,1020.13
2018-12-18T04:07:43.046Z,1020.16
2018-12-18T04:08:43.029Z,1020.25
2018-12-18T04:09:43.016Z,1020.09
2018-12-18T04:10:43.007Z,1020.14
2018-12-18T04:11:42.995Z,1020.10
2018-12-18T04:12:42.998Z,1020.12
2018-12-18T04:13:42.977Z,1020.09
2018-12-18T04:14:42.963Z,1020.16
2018-12-18T04:15:42.951Z,1020.07
2018-12-18T04:16:42.943Z,1020.12
2018-12-18T04:17:42.940Z,1020.19
2018-12-18T04:18:42.917Z,1020.12
2018-12-18T04:19:42.909Z,1020.07
2018-12-18T04:20:42.900Z,1020.05
2018-12-18T04:21:42.889Z,1020.10
2018-12-18T04:22:42.885Z,1020.06
2018-12-18T04:23:42.866Z,1020.02
2018-12-18T04:24:42.853Z,1020.08
2018-12-18T04:25:42.847Z,1020.04
2018-12-18T04:26:42.831Z,1020.03
2018-12-18T04:27:42.830Z,1020.02
2018-12-18T04:28:42.810Z,1019.98
2018-12-18T04:29:42.799Z,1020.06
2018-12-18T04:30:42.794Z,1019.99
2018-12-18T04:31:42.777Z,1020.06
2018-12-18T04:32:42.771Z,1020.03
2018-12-18T04:33:42.766Z,1020.05
2018-12-18T04:34:43.331Z,1020.06
2018-12-18T04:35:42.734Z,1020.07
2018-12-18T04:36:42.733Z,1020.12
2018-12-18T04:37:42.730Z,1020.13
2018-12-18T04:38:42.711Z,1020.12
2018-12-18T04:39:42.696Z,1020.15
2018-12-18T04:40:42.680Z,1020.15
2018-12-18T04:41:42.672Z,1020.14
2018-12-18T04:42:42.662Z,1020.13
2018-12-18T04:43:42.665Z,1020.15
2018-12-18T04:44:42.636Z,1020.09
2018-12-18T04:45:42.629Z,1020.18
2018-12-18T04:46:42.618Z,1020.21
2018-12-18T04:47:42.607Z,1020.21
2018-12-18T04:48:42.617Z,1020.17
2018-12-18T04:49:42.583Z,1020.16
2018-12-18T04:50:42.573Z,1020.16
2018-12-18T04:51:42.572Z,1020.13
2018-12-18T04:52:42.552Z,1020.14
2018-12-18T04:53:42.556Z,1020.11
2018-12-18T04:54:42.542Z,1020.13
2018-12-18T04:55:42.522Z,1020.14
2018-12-18T04:56:42.512Z,1020.13
2018-12-18T04:57:42.503Z,1020.19
2018-12-18T04:58:42.499Z,1020.15
2018-12-18T04:59:42.477Z,1020.12
2018-12-18T05:00:42.467Z,1020.15
2018-12-18T05:01:42.459Z,1020.11
2018-12-18T05:02:42.447Z,1020.13
2018-12-18T05:03:42.447Z,1020.18
2018-12-18T05:04:42.424Z,1020.16
2018-12-18T05:05:42.429Z,1020.12
2018-12-18T05:06:42.403Z,1020.16
2018-12-18T05:07:42.395Z,1020.11
2018-12-18T05:08:42.421Z,1020.10
2018-12-18T05:09:42.371Z,1020.13
2018-12-18T05:10:42.363Z,1020.14
2018-12-18T05:11:42.349Z,1020.08
2018-12-18T05:12:42.339Z,1020.05
2018-12-18T05:13:42.332Z,1020.03
2018-12-18T05:14:42.328Z,1020.07
2018-12-18T05:15:42.315Z,1020.05
2018-12-18T05:16:42.297Z,1020.06
2018-12-18T05:17:42.285Z,1020.05
2018-12-18T05:18:42.277Z,1020.02
2018-12-18T05:19:42.277Z,1020.03
2018-12-18T05:20:42.252Z,1019.99
2018-12-18T05:21:42.242Z,1020.07
2018-12-18T05:22:42.234Z,1020.14
2018-12-18T05:23:42.219Z,1020.15
2018-12-18T05:24:42.223Z,1020.10
2018-12-18T05:25:42.199Z,1020.17
2018-12-18T05:26:42.189Z,1020.13
2018-12-18T05:27:42.182Z,1020.13
2018-12-18T05:28:42.185Z,1020.15
2018-12-18T05:29:42.168Z,1020.14
2018-12-18T05:30:42.145Z,1020.15
2018-12-18T05:31:42.136Z,1020.10
2018-12-18T05:32:42.124Z,1020.13
2018-12-18T05:33:42.121Z,1020.15
2018-12-18T05:34:42.117Z,1020.11
2018-12-18T05:35:42.092Z,1020.17
2018-12-18T05:36:42.083Z,1020.15
2018-12-18T05:37:42.073Z,1020.10
2018-12-18T05:38:42.094Z,1020.16
2018-12-18T05:39:42.062Z,1020.15
2018-12-18T05:40:42.038Z,1020.20
2018-12-18T05:41:42.059Z,1020.14
2018-12-18T05:42:42.017Z,1020.26
2018-12-18T05:43:42.005Z,1020.23
2018-12-18T05:44:42.004Z,1020.25
2018-12-18T05:45:41.993Z,1020.27
2018-12-18T05:46:41.971Z,1020.29
2018-12-18T05:47:41.960Z,1020.29
2018-12-18T05:48:41.951Z,1020.34
2018-12-18T05:49:41.940Z,1020.32
2018-12-18T05:50:41.944Z,1020.34
2018-12-18T05:51:42.645Z,1020.35
2018-12-18T05:52:41.906Z,1020.34
2018-12-18T05:53:41.897Z,1020.38
2018-12-18T05:54:41.887Z,1020.36
2018-12-18T05:55:41.886Z,1020.36
2018-12-18T05:56:41.882Z,1020.36
2018-12-18T05:57:41.854Z,1020.39
2018-12-18T05:58:41.849Z,1020.42
2018-12-18T05:59:41.834Z,1020.37
2018-12-18T06:00:41.831Z,1020.38
2018-12-18T06:01:41.814Z,1020.44
2018-12-18T06:02:41.813Z,1020.47
2018-12-18T06:03:41.788Z,1020.43
2018-12-18T06:04:41.777Z,1020.47
2018-12-18T06:05:41.778Z,1020.49
2018-12-18T06:06:41.769Z,1020.51
2018-12-18T06:07:41.749Z,1020.44
2018-12-18T06:08:41.738Z,1020.48
2018-12-18T06:09:41.725Z,1020.48
2018-12-18T06:10:41.724Z,1020.47
2018-12-18T06:11:41.703Z,1020.51
2018-12-18T06:12:41.693Z,1020.56
2018-12-18T06:13:41.699Z,1020.52
2018-12-18T06:14:41.668Z,1020.54
2018-12-18T06:15:41.669Z,1020.61
2018-12-18T06:16:41.648Z,1020.55
2018-12-18T06:17:41.638Z,1020.54
2018-12-18T06:18:41.631Z,1020.58
2018-12-18T06:19:41.623Z,1020.59
2018-12-18T06:20:41.643Z,1020.64
2018-12-18T06:21:41.594Z,1020.63
2018-12-18T06:22:41.586Z,1020.63
2018-12-18T06:23:41.575Z,1020.63
2018-12-18T06:24:41.565Z,1020.64
2018-12-18T06:25:41.564Z,1020.63
2018-12-18T06:26:41.540Z,1020.64
2018-12-18T06:27:41.527Z,1020.60
2018-12-18T06:28:41.519Z,1020.59
2018-12-18T06:29:41.506Z,1020.66
2018-12-18T06:30:41.516Z,1020.66
2018-12-18T06:31:41.499Z,1020.63
2018-12-18T06:32:41.476Z,1020.70
2018-12-18T06:33:41.464Z,1020.64
2018-12-18T06:34:41.455Z,1020.68
2018-12-18T06:35:41.454Z,1020.72
2018-12-18T06:36:41.440Z,1020.69
2018-12-18T06:37:41.443Z,1020.77
2018-12-18T06:38:41.412Z,1020.86
2018-12-18T06:39:41.417Z,1020.70
2018-12-18T06:40:41.402Z,1020.70
2018-12-18T06:41:41.383Z,1020.69
2018-12-18T06:42:41.379Z,1020.78
2018-12-18T06:43:41.355Z,1020.81
2018-12-18T06:44:41.346Z,1020.76
2018-12-18T06:45:41.350Z,1020.73
2018-12-18T06:46:41.324Z,1020.86
2018-12-18T06:47:41.318Z,1020.74
2018-12-18T06:48:41.304Z,1020.72
2018-12-18T06:49:41.299Z,1020.69
2018-12-18T06:50:41.292Z,1020.74
2018-12-18T06:51:41.275Z,1020.77
2018-12-18T06:52:41.262Z,1020.75
2018-12-18T06:53:41.253Z,1020.72
2018-12-18T06:54:41.240Z,1020.74
2018-12-18T06:55:41.248Z,1020.76
2018-12-18T06:56:41.218Z,1020.83
2018-12-18T06:57:41.206Z,1020.78
2018-12-18T06:58:41.195Z,1020.77
2018-12-18T06:59:41.188Z,1020.74
2018-12-18T07:00:41.184Z,1020.78
2018-12-18T07:01:41.162Z,1020.76
2018-12-18T07:02:41.151Z,1020.83
2018-12-18T07:03:41.142Z,1020.80
2018-12-18T07:04:41.133Z,1020.78
2018-12-18T07:05:41.145Z,1020.85
2018-12-18T07:06:41.114Z,1020.84
2018-12-18T07:07:41.096Z,1020.80
2018-12-18T07:08:41.085Z,1020.85
2018-12-18T07:09:41.072Z,1020.83
2018-12-18T07:10:41.079Z,1020.87
2018-12-18T07:11:41.052Z,1020.84
2018-12-18T07:12:41.051Z,1020.80
2018-12-18T07:13:41.031Z,1020.81
2018-12-18T07:14:41.028Z,1020.77
2018-12-18T07:15:41.019Z,1020.75
2018-12-18T07:16:41.017Z,1020.74
2018-12-18T07:17:40.987Z,1020.79
2018-12-18T07:18:40.997Z,1020.81
2018-12-18T07:19:40.967Z,1020.81
2018-12-18T07:20:40.955Z,1020.79
2018-12-18T07:21:40.955Z,1020.86
2018-12-18T07:22:40.947Z,1020.85
2018-12-18T07:23:40.924Z,1020.87
2018-12-18T07:24:40.913Z,1020.91
2018-12-18T07:25:40.902Z,1020.89
2018-12-18T07:26:40.909Z,1020.87
2018-12-18T07:27:40.890Z,1020.86
2018-12-18T07:28:40.869Z,1020.92
2018-12-18T07:29:40.862Z,1020.94
2018-12-18T07:30:40.849Z,1020.94
2018-12-18T07:31:40.849Z,1020.98
2018-12-18T07:32:40.830Z,1020.92
2018-12-18T07:33:40.825Z,1020.89
2018-12-18T07:34:40.805Z,1020.95
2018-12-18T07:35:40.810Z,1020.92
2018-12-18T07:36:40.800Z,1020.97
2018-12-18T07:37:40.772Z,1020.97
2018-12-18T07:38:40.764Z,1021.02
2018-12-18T07:39:40.758Z,1020.99
2018-12-18T07:40:40.742Z,1021.02
2018-12-18T07:41:40.741Z,1021.03
2018-12-18T07:42:40.715Z,1021.07
2018-12-18T07:43:40.705Z,1021.06
2018-12-18T07:44:40.715Z,1021.04
2018-12-18T07:45:40.684Z,1021.01
2018-12-18T07:46:40.682Z,1021.06
2018-12-18T07:47:40.703Z,1021.04
2018-12-18T07:48:40.653Z,1021.10
2018-12-18T07:49:40.641Z,1021.08
2018-12-18T07:50:40.632Z,1021.10
2018-12-18T07:51:40.629Z,1021.14
2018-12-18T07:52:40.607Z,1021.11
2018-12-18T07:53:49.649Z,1021.17
2018-12-18T07:54:40.588Z,1021.29
2018-12-18T07:55:40.577Z,1021.16
2018-12-18T07:56:40.573Z,1021.23
2018-12-18T07:57:40.565Z,1021.25
2018-12-18T07:58:40.540Z,1021.33
2018-12-18T07:59:40.532Z,1021.25
2018-12-18T08:00:40.522Z,1021.30
2018-12-18T08:01:40.520Z,1021.25
2018-12-18T08:02:40.501Z,1021.30
2018-12-18T08:03:40.493Z,1021.23
2018-12-18T08:04:40.485Z,1021.20
2018-12-18T08:05:40.475Z,1021.34
2018-12-18T08:06:40.481Z,1021.35
2018-12-18T08:07:40.481Z,1021.23
2018-12-18T08:08:40.452Z,1021.29
2018-12-18T08:09:40.735Z,1021.23
2018-12-18T08:10:40.466Z,1021.28
2018-12-18T08:11:40.450Z,1021.35
2018-12-18T08:12:40.429Z,1021.26
2018-12-18T08:13:40.395Z,1021.33
2018-12-18T08:14:40.420Z,1021.34
2018-12-18T08:15:40.369Z,1021.34
2018-12-18T08:16:40.370Z,1021.33
2018-12-18T08:17:40.351Z,1021.27
2018-12-18T08:18:40.378Z,1021.25
2018-12-18T08:19:40.369Z,1021.24
2018-12-18T08:20:40.326Z,1021.23
2018-12-18T08:21:41.121Z,1021.23
2018-12-18T08:22:40.289Z,1021.25
2018-12-18T08:23:40.287Z,1021.26
2018-12-18T08:24:40.290Z,1021.30
2018-12-18T08:25:40.291Z,1021.25
2018-12-18T08:26:40.272Z,1021.25
2018-12-18T08:27:40.249Z,1021.25
2018-12-18T08:28:40.273Z,1021.33
2018-12-18T08:29:40.231Z,1021.25
2018-12-18T08:30:40.214Z,1021.26
2018-12-18T08:31:40.250Z,1021.33
2018-12-18T08:32:40.176Z,1021.33
2018-12-18T08:33:40.178Z,1021.33
2018-12-18T08:34:40.186Z,1021.30
2018-12-18T08:35:40.158Z,1021.35
2018-12-18T08:36:40.225Z,1021.32
2018-12-18T08:37:40.202Z,1021.33
2018-12-18T08:38:40.165Z,1021.39
2018-12-18T08:39:40.105Z,1021.36
2018-12-18T08:40:40.113Z,1021.37
2018-12-18T08:41:40.107Z,1021.33
2018-12-18T08:42:41.380Z,1021.35
2018-12-18T08:43:40.070Z,1021.35
2018-12-18T08:44:40.053Z,1021.30
2018-12-18T08:45:40.041Z,1021.33
2018-12-18T08:46:40.043Z,1021.33
2018-12-18T08:47:40.009Z,1021.34
2018-12-18T08:48:39.995Z,1021.28
2018-12-18T08:49:39.985Z,1021.33
2018-12-18T08:50:40.037Z,1021.35
2018-12-18T08:51:39.970Z,1021.39
2018-12-18T08:52:39.969Z,1021.32
2018-12-18T08:53:39.936Z,1021.39
2018-12-18T08:54:39.939Z,1021.41
2018-12-18T08:55:39.914Z,1021.38
2018-12-18T08:56:39.921Z,1021.31
2018-12-18T08:57:39.915Z,1021.47
2018-12-18T08:58:39.887Z,1021.39
2018-12-18T08:59:39.889Z,1021.44
2018-12-18T09:00:39.873Z,1021.44
2018-12-18T09:01:39.851Z,1021.44
2018-12-18T09:02:39.856Z,1021.45
2018-12-18T09:03:39.852Z,1021.43
2018-12-18T09:04:39.822Z,1021.42
2018-12-18T09:05:43.155Z,1021.38
2018-12-18T09:06:39.811Z,1021.36
2018-12-18T09:07:39.800Z,1021.40
2018-12-18T09:08:39.791Z,1021.43
2018-12-18T09:09:39.758Z,1021.33
2018-12-18T09:10:40.086Z,1021.38
2018-12-18T09:11:39.744Z,1021.36
2018-12-18T09:12:39.739Z,1021.41
2018-12-18T09:13:39.719Z,1021.35
2018-12-18T09:14:39.749Z,1021.38
2018-12-18T09:15:39.697Z,1021.48
2018-12-18T09:16:39.688Z,1021.38
2018-12-18T09:17:39.688Z,1021.37
2018-12-18T09:18:39.661Z,1021.40
2018-12-18T09:19:39.653Z,1021.45
2018-12-18T09:20:39.667Z,1021.32
2018-12-18T09:21:39.632Z,1021.41
2018-12-18T09:22:39.642Z,1021.43
2018-12-18T09:23:39.604Z,1021.44
2018-12-18T09:24:39.602Z,1021.41
2018-12-18T09:25:39.590Z,1021.37
2018-12-18T09:26:39.582Z,1021.42
2018-12-18T09:27:39.587Z,1021.41
2018-12-18T09:28:39.571Z,1021.40
2018-12-18T09:29:39.545Z,1021.38
2018-12-18T09:30:42.668Z,1021.33
2018-12-18T09:31:39.526Z,1021.37
2018-12-18T09:32:39.533Z,1021.39
2018-12-18T09:33:39.508Z,1021.33
2018-12-18T09:34:39.495Z,1021.35
2018-12-18T09:35:41.007Z,1021.41
2018-12-18T09:36:39.462Z,1021.32
2018-12-18T09:37:39.466Z,1021.35
2018-12-18T09:38:39.440Z,1021.31
2018-12-18T09:39:39.437Z,1021.39
2018-12-18T09:40:39.421Z,1021.30
2018-12-18T09:41:39.408Z,1021.36
2018-12-18T09:42:39.408Z,1021.38
2018-12-18T09:43:39.387Z,1021.36
2018-12-18T09:44:39.375Z,1021.33
2018-12-18T09:45:39.369Z,1021.33
2018-12-18T09:46:39.360Z,1021.32
2018-12-18T09:47:39.354Z,1021.25
2018-12-18T09:48:39.331Z,1021.29
2018-12-18T09:49:39.324Z,1021.28
2018-12-18T09:50:39.314Z,1021.33
2018-12-18T09:51:39.307Z,1021.39
2018-12-18T09:52:39.299Z,1021.38
2018-12-18T09:53:39.277Z,1021.39
2018-12-18T09:54:39.267Z,1021.38
2018-12-18T09:55:39.273Z,1021.40
2018-12-18T09:56:39.259Z,1021.38
2018-12-18T09:57:39.248Z,1021.46
2018-12-18T09:58:39.223Z,1021.48
2018-12-18T09:59:39.211Z,1021.45
2018-12-18T10:00:39.203Z,1021.47
2018-12-18T10:01:39.193Z,1021.49
2018-12-18T10:02:39.195Z,1021.52
2018-12-18T10:03:39.174Z,1021.49
2018-12-18T10:04:39.162Z,1021.55
2018-12-18T10:05:39.147Z,1021.43
2018-12-18T10:06:39.141Z,1021.48
2018-12-18T10:07:39.175Z,1021.52
2018-12-18T10:08:39.118Z,1021.48
2018-12-18T10:09:39.109Z,1021.49
2018-12-18T10:10:39.092Z,1021.46
2018-12-18T10:11:39.086Z,1021.43
2018-12-18T10:12:39.071Z,1021.44
2018-12-18T10:13:39.078Z,1021.47
2018-12-18T10:14:39.054Z,1021.45
2018-12-18T10:15:39.038Z,1021.45
2018-12-18T10:16:39.027Z,1021.44
2018-12-18T10:17:39.020Z,1021.39
2018-12-18T10:18:39.042Z,1021.44
2018-12-18T10:19:39.000Z,1021.43
2018-12-18T10:20:38.985Z,1021.43
2018-12-18T10:21:38.976Z,1021.47
2018-12-18T10:22:38.962Z,1021.46
2018-12-18T10:23:38.972Z,1021.45
2018-12-18T10:24:38.944Z,1021.39
2018-12-18T10:25:38.932Z,1021.38
2018-12-18T10:26:38.919Z,1021.36
2018-12-18T10:27:38.911Z,1021.45
2018-12-18T10:28:38.923Z,1021.43
2018-12-18T10:29:38.891Z,1021.36
2018-12-18T10:30:38.884Z,1021.30
2018-12-18T10:31:38.873Z,1021.36
2018-12-18T10:32:38.854Z,1021.36
2018-12-18T10:33:38.854Z,1021.36
2018-12-18T10:34:38.830Z,1021.39
2018-12-18T10:35:38.821Z,1021.40
2018-12-18T10:36:38.815Z,1021.43
2018-12-18T10:37:38.798Z,1021.34
2018-12-18T10:38:38.801Z,1021.31
2018-12-18T10:39:38.792Z,1021.33
2018-12-18T10:40:38.766Z,1021.28
2018-12-18T10:41:38.761Z,1021.28
2018-12-18T10:42:38.758Z,1021.29
2018-12-18T10:43:38.748Z,1021.30
2018-12-18T10:44:38.723Z,1021.31
2018-12-18T10:45:38.723Z,1021.31
2018-12-18T10:46:38.704Z,1021.29
2018-12-18T10:47:38.699Z,1021.23
2018-12-18T10:48:38.697Z,1021.25
2018-12-18T10:49:38.667Z,1021.26
2018-12-18T10:50:38.663Z,1021.20
2018-12-18T10:51:38.645Z,1021.24
2018-12-18T10:52:38.642Z,1021.23
2018-12-18T10:53:38.656Z,1021.18
2018-12-18T10:54:38.629Z,1021.20
2018-12-18T10:55:38.613Z,1021.14
2018-12-18T10:56:38.599Z,1021.22
2018-12-18T10:57:38.597Z,1021.18
2018-12-18T10:58:38.598Z,1021.20
2018-12-18T10:59:38.573Z,1021.07
2018-12-18T11:00:38.561Z,1021.14
2018-12-18T11:01:38.574Z,1021.08
2018-12-18T11:02:38.537Z,1021.11
2018-12-18T11:03:38.542Z,1021.10
2018-12-18T11:04:38.512Z,1021.10
2018-12-18T11:05:38.514Z,1021.10
2018-12-18T11:06:38.489Z,1021.09
2018-12-18T11:07:38.484Z,1021.18
2018-12-18T11:08:38.483Z,1021.10
2018-12-18T11:09:38.500Z,1021.15
2018-12-18T11:10:38.446Z,1021.16
2018-12-18T11:11:39.197Z,1021.09
2018-12-18T11:12:38.424Z,1021.07
2018-12-18T11:13:38.445Z,1021.04
2018-12-18T11:14:38.406Z,1021.10
2018-12-18T11:15:38.396Z,1021.09
2018-12-18T11:16:38.386Z,1021.08
2018-12-18T11:17:38.375Z,1021.08
2018-12-18T11:18:38.389Z,1021.12
2018-12-18T11:19:38.345Z,1021.06
2018-12-18T11:20:38.338Z,1021.00
2018-12-18T11:21:38.329Z,1020.95
2018-12-18T11:22:38.318Z,1021.00
2018-12-18T11:23:38.348Z,1020.98
2018-12-18T11:24:38.295Z,1020.85
2018-12-18T11:25:38.287Z,1020.93
2018-12-18T11:26:39.178Z,1020.92
2018-12-18T11:27:38.271Z,1020.96
2018-12-18T11:28:38.255Z,1020.95
2018-12-18T11:29:38.258Z,1020.99
2018-12-18T11:30:38.228Z,1020.92
2018-12-18T11:31:38.220Z,1020.93
2018-12-18T11:32:38.206Z,1020.85
2018-12-18T11:33:38.198Z,1020.84
2018-12-18T11:34:38.198Z,1020.85
2018-12-18T11:35:38.171Z,1020.84
2018-12-18T11:36:38.157Z,1020.82
2018-12-18T11:37:38.149Z,1020.79
2018-12-18T11:38:38.141Z,1020.73
2018-12-18T11:39:38.137Z,1020.72
2018-12-18T11:40:38.118Z,1020.78
2018-12-18T11:41:38.104Z,1020.67
2018-12-18T11:42:38.091Z,1020.73
2018-12-18T11:43:38.081Z,1020.69
2018-12-18T11:44:38.092Z,1020.74
2018-12-18T11:45:38.065Z,1020.71
2018-12-18T11:46:38.046Z,1020.63
2018-12-18T11:47:38.036Z,1020.65
2018-12-18T11:48:38.028Z,1020.70
2018-12-18T11:49:38.067Z,1020.62
2018-12-18T11:50:38.001Z,1020.64
2018-12-18T11:51:38.007Z,1020.59
2018-12-18T11:52:37.983Z,1020.70
2018-12-18T11:53:37.978Z,1020.62
2018-12-18T11:54:37.978Z,1020.75
2018-12-18T11:55:37.959Z,1020.80
2018-12-18T11:56:37.939Z,1020.77
2018-12-18T11:57:37.937Z,1020.66
2018-12-18T11:58:37.917Z,1020.60
2018-12-18T11:59:37.922Z,1020.63
2018-12-18T12:00:37.902Z,1020.56
2018-12-18T12:01:37.882Z,1020.56
2018-12-18T12:02:42.863Z,1020.58
2018-12-18T12:03:38.861Z,1020.58
2018-12-18T12:04:37.890Z,1020.60
2018-12-18T12:05:38.163Z,1020.75